Time;durP1;ratioP1;P1;durP2;ratioP2;P2;SDS_P1;SDS_P2;PMS_P1;PMS_P2;Temp;Humidity;BMP_temperature;BMP_pressure;BME280_temperature;BME280_humidity;BME280_pressure;Samples;Min_cycle;Max_cycle;Signal;HPM_P1;HPM_P2
2023/08/25 00:01:23;;;;;;;3.35;1.70;;;25.70;65.40;;;;;;5060902;28;20221;-86
2023/08/25 00:03:50;;;;;;;1.70;1.60;;;25.70;65.40;;;;;;5038859;28;20199;-86
2023/08/25 00:06:17;;;;;;;2.42;1.80;;;25.70;65.40;;;;;;5038283;28;20301;-86
2023/08/25 00:08:44;;;;;;;2.30;1.88;;;25.60;65.30;;;;;;5038428;28;20252;-85
2023/08/25 00:11:11;;;;;;;2.22;1.73;;;25.60;65.30;;;;;;5054230;28;20276;-86
2023/08/25 00:13:38;;;;;;;2.47;1.90;;;25.70;65.40;;;;;;5037471;28;20190;-86
2023/08/25 00:16:08;;;;;;;2.00;1.80;;;25.70;65.40;;;;;;5037305;28;20282;-85
2023/08/25 00:18:35;;;;;;;2.47;1.67;;;25.60;65.40;;;;;;5021750;28;20244;-85
2023/08/25 00:21:02;;;;;;;2.13;1.67;;;25.60;65.30;;;;;;5036684;28;20541;-86
2023/08/25 00:23:29;;;;;;;2.33;1.60;;;25.60;65.40;;;;;;5036481;28;20198;-86
2023/08/25 00:25:56;;;;;;;4.22;1.70;;;25.60;65.50;;;;;;5036250;28;20224;-86
2023/08/25 00:28:23;;;;;;;4.07;1.85;;;25.60;65.30;;;;;;5053009;28;20202;-86
2023/08/25 00:30:52;;;;;;;2.83;1.70;;;25.60;65.40;;;;;;5037103;28;20214;-86
2023/08/25 00:33:21;;;;;;;2.25;1.70;;;25.60;65.40;;;;;;5039541;28;20218;-86
2023/08/25 00:35:48;;;;;;;2.40;2.20;;;25.70;65.40;;;;;;5039103;28;20206;-86
2023/08/25 00:38:15;;;;;;;2.60;1.83;;;25.60;65.30;;;;;;5039753;28;20208;-85
2023/08/25 00:40:42;;;;;;;1.98;1.60;;;25.60;65.30;;;;;;5042416;28;20237;-86
2023/08/25 00:43:09;;;;;;;1.73;1.63;;;25.60;65.30;;;;;;5042235;28;20281;-86
2023/08/25 00:45:39;;;;;;;3.25;1.90;;;25.60;65.20;;;;;;5042414;28;20202;-86
2023/08/25 00:48:07;;;;;;;2.08;1.88;;;25.60;65.20;;;;;;5042151;28;20695;-85
2023/08/25 00:50:36;;;;;;;3.00;1.75;;;25.60;65.20;;;;;;5042663;28;20222;-86
2023/08/25 00:53:04;;;;;;;2.20;1.75;;;25.60;65.30;;;;;;5042442;28;20653;-85
2023/08/25 00:55:31;;;;;;;3.85;2.10;;;25.60;65.20;;;;;;5042006;28;20741;-86
2023/08/25 00:57:59;;;;;;;1.92;1.60;;;25.60;65.30;;;;;;5042154;28;20241;-86
2023/08/25 01:00:26;;;;;;;3.22;1.70;;;25.60;65.20;;;;;;5042123;28;20577;-86
2023/08/25 01:02:54;;;;;;;1.92;1.83;;;25.60;65.20;;;;;;5044655;28;20672;-85
2023/08/25 01:05:21;;;;;;;2.55;1.80;;;25.60;65.20;;;;;;5058716;28;20201;-86
2023/08/25 01:07:49;;;;;;;2.58;1.77;;;25.60;65.30;;;;;;5040663;28;20215;-86
2023/08/25 01:10:17;;;;;;;2.33;1.88;;;25.60;65.30;;;;;;5040678;28;20194;-86
2023/08/25 01:12:51;;;;;;;1.90;1.80;;;25.60;65.20;;;;;;5040777;28;20672;-86
2023/08/25 01:15:21;;;;;;;1.80;1.70;;;25.60;65.20;;;;;;5040705;28;20187;-86
2023/08/25 01:17:54;;;;;;;1.90;1.70;;;25.60;65.20;;;;;;5040671;28;20187;-86
2023/08/25 01:20:22;;;;;;;2.22;1.90;;;25.50;65.10;;;;;;5040434;28;21600;-86
2023/08/25 01:22:53;;;;;;;2.60;1.90;;;25.60;65.30;;;;;;5040316;28;20195;-85
2023/08/25 01:25:24;;;;;;;1.70;1.60;;;25.60;65.30;;;;;;5056934;28;20195;-86
2023/08/25 01:27:51;;;;;;;4.03;2.17;;;25.60;65.40;;;;;;5040153;28;20211;-85
2023/08/25 01:30:19;;;;;;;3.40;2.03;;;25.50;65.30;;;;;;5056272;28;20198;-86
2023/08/25 01:32:47;;;;;;;1.63;1.52;;;25.60;65.40;;;;;;5040162;28;20576;-86
2023/08/25 01:35:15;;;;;;;2.20;2.00;;;25.50;65.40;;;;;;5039916;28;20278;-86
2023/08/25 01:37:46;;;;;;;3.90;2.30;;;25.50;65.40;;;;;;5039269;28;20198;-86
2023/08/25 01:40:16;;;;;;;3.92;2.13;;;25.50;65.50;;;;;;5056260;28;20218;-86
2023/08/25 01:42:46;;;;;;;3.70;2.20;;;25.50;65.40;;;;;;5039527;28;20203;-86
2023/08/25 01:45:13;;;;;;;2.50;1.92;;;25.50;65.50;;;;;;5039412;28;20203;-86
2023/08/25 01:47:41;;;;;;;3.78;2.28;;;25.50;65.50;;;;;;5048944;28;20249;-86
2023/08/25 01:50:08;;;;;;;2.50;2.10;;;25.50;65.50;;;;;;5049214;28;20210;-87
2023/08/25 01:52:36;;;;;;;2.30;1.73;;;25.50;65.60;;;;;;5050338;28;20222;-86
2023/08/25 01:55:04;;;;;;;2.22;1.77;;;25.50;65.60;;;;;;5053287;28;20293;-86
2023/08/25 01:57:31;;;;;;;1.90;1.80;;;25.50;65.60;;;;;;5040104;28;20300;-85
2023/08/25 02:00:00;;;;;;;4.03;2.13;;;25.40;65.50;;;;;;5023986;28;20195;-86
2023/08/25 02:02:27;;;;;;;4.38;1.98;;;25.40;65.50;;;;;;5041276;28;20222;-86
2023/08/25 02:04:56;;;;;;;3.60;2.05;;;25.40;65.60;;;;;;5041200;28;20206;-85
2023/08/25 02:07:24;;;;;;;2.95;1.80;;;25.40;65.60;;;;;;5040866;28;20218;-85
2023/08/25 02:09:54;;;;;;;4.03;1.80;;;25.40;65.60;;;;;;5040827;28;20194;-86
2023/08/25 02:12:23;;;;;;;2.20;2.05;;;25.40;65.60;;;;;;5023114;28;20219;-86
2023/08/25 02:14:50;;;;;;;2.15;1.85;;;25.40;65.60;;;;;;5038357;28;20195;-86
2023/08/25 02:17:18;;;;;;;2.45;2.17;;;25.40;65.70;;;;;;5039017;28;20218;-86
2023/08/25 02:19:46;;;;;;;2.03;1.85;;;25.40;65.60;;;;;;5055908;28;20207;-86
2023/08/25 02:22:13;;;;;;;2.33;2.00;;;25.40;65.60;;;;;;5038965;28;20226;-86
2023/08/25 02:24:40;;;;;;;1.95;1.75;;;25.40;65.70;;;;;;5038815;28;20237;-85
2023/08/25 02:27:07;;;;;;;2.45;1.90;;;25.30;65.60;;;;;;5039542;28;20218;-86
2023/08/25 02:29:37;;;;;;;2.20;1.90;;;25.40;65.80;;;;;;5038912;28;20195;-86
2023/08/25 02:32:05;;;;;;;3.03;1.92;;;25.30;65.70;;;;;;5022390;28;20215;-86
2023/08/25 02:34:34;;;;;;;2.88;1.85;;;25.30;65.60;;;;;;5055599;28;20257;-86
2023/08/25 02:37:03;;;;;;;2.15;1.90;;;25.30;66.00;;;;;;5023692;28;20183;-86
2023/08/25 02:39:30;;;;;;;2.40;1.95;;;25.30;65.70;;;;;;5038588;28;20286;-86
2023/08/25 02:41:58;;;;;;;2.28;2.08;;;25.30;65.60;;;;;;5038984;28;20596;-86
2023/08/25 02:44:26;;;;;;;2.47;1.92;;;25.30;65.60;;;;;;5055683;28;20203;-86
2023/08/25 02:46:53;;;;;;;2.42;1.98;;;25.30;65.60;;;;;;5039135;28;20656;-86
2023/08/25 02:49:21;;;;;;;3.97;1.98;;;25.30;65.60;;;;;;5039251;28;20203;-85
2023/08/25 02:51:50;;;;;;;2.10;1.90;;;25.30;65.60;;;;;;5038773;28;20210;-86
2023/08/25 02:54:18;;;;;;;3.40;2.10;;;25.30;65.50;;;;;;5039636;28;20190;-86
2023/08/25 02:56:51;;;;;;;2.92;2.10;;;25.30;65.60;;;;;;5039314;28;20199;-86
2023/08/25 02:59:18;;;;;;;2.33;1.67;;;25.30;65.50;;;;;;5039496;28;20202;-86
2023/08/25 03:01:45;;;;;;;2.25;2.05;;;25.30;65.60;;;;;;5038549;28;20631;-86
2023/08/25 03:04:12;;;;;;;3.97;2.08;;;25.30;65.50;;;;;;5039053;28;20203;-86
2023/08/25 03:06:40;;;;;;;3.35;2.00;;;25.30;65.00;;;;;;5037373;28;20265;-85
2023/08/25 03:09:08;;;;;;;3.38;2.08;;;25.30;65.00;;;;;;5037670;28;20194;-86
2023/08/25 03:11:35;;;;;;;3.10;2.00;;;25.30;65.10;;;;;;5005579;28;20215;-85
2023/08/25 03:14:05;;;;;;;3.38;2.10;;;25.30;66.00;;;;;;5038137;28;20202;-86
2023/08/25 03:16:33;;;;;;;4.45;2.10;;;25.30;65.20;;;;;;5054311;28;20209;-86
2023/08/25 03:19:00;;;;;;;3.47;2.10;;;25.30;65.00;;;;;;5038450;28;20229;-86
2023/08/25 03:21:48;;;;;;;3.55;1.80;;;25.30;64.90;;;;;;5056545;28;20221;-86
2023/08/25 03:24:17;;;;;;;3.65;1.90;;;25.30;64.90;;;;;;5039270;28;20233;-86
2023/08/25 03:26:44;;;;;;;2.25;1.83;;;25.30;65.00;;;;;;5038766;28;20206;-86
2023/08/25 03:29:12;;;;;;;5.15;1.98;;;25.50;64.90;;;;;;5041349;28;20696;-86
2023/08/25 03:31:39;;;;;;;2.08;1.70;;;25.50;64.40;;;;;;5078026;28;20225;-87
2023/08/25 03:34:06;;;;;;;2.20;1.98;;;25.50;64.10;;;;;;5061414;28;20214;-86
2023/08/25 03:36:33;;;;;;;2.90;2.00;;;25.50;64.00;;;;;;5045760;28;20205;-86
2023/08/25 03:39:02;;;;;;;3.50;2.05;;;25.60;63.90;;;;;;5036964;28;20638;-86
2023/08/25 03:41:30;;;;;;;3.30;2.05;;;25.60;63.90;;;;;;5036609;28;20225;-86
2023/08/25 03:43:57;;;;;;;2.15;1.90;;;25.60;64.10;;;;;;5037117;28;20198;-86
2023/08/25 03:46:24;;;;;;;3.20;2.03;;;25.60;63.90;;;;;;5037475;28;20631;-86
2023/08/25 03:48:52;;;;;;;2.78;1.80;;;25.60;63.70;;;;;;5053163;28;20222;-86
2023/08/25 03:51:19;;;;;;;4.88;2.00;;;25.60;63.60;;;;;;5037444;28;20238;-86
2023/08/25 03:53:46;;;;;;;2.65;2.17;;;25.60;63.60;;;;;;5036962;28;20249;-86
2023/08/25 03:56:13;;;;;;;2.15;1.95;;;25.60;63.70;;;;;;5020605;28;20199;-86
2023/08/25 03:58:43;;;;;;;2.30;1.75;;;25.60;63.50;;;;;;5020683;28;20565;-86
2023/08/25 04:01:10;;;;;;;2.40;1.90;;;25.60;63.50;;;;;;5052986;28;20240;-86
2023/08/25 04:03:38;;;;;;;4.30;2.10;;;25.60;63.50;;;;;;5038228;28;20225;-86
2023/08/25 04:06:06;;;;;;;4.18;2.00;;;25.50;63.40;;;;;;5055185;28;20202;-86
2023/08/25 04:08:34;;;;;;;4.38;2.00;;;25.60;63.30;;;;;;5038190;28;20258;-86
2023/08/25 04:11:01;;;;;;;7.93;2.45;;;25.60;63.30;;;;;;5037796;28;20215;-86
2023/08/25 04:13:28;;;;;;;3.72;2.00;;;25.50;63.10;;;;;;5020185;28;20657;-86
2023/08/25 04:15:57;;;;;;;4.53;2.20;;;25.60;63.20;;;;;;5037107;28;20205;-86
2023/08/25 04:18:26;;;;;;;4.32;1.90;;;25.50;63.10;;;;;;5037808;28;20261;-86
2023/08/25 04:20:54;;;;;;;2.20;2.00;;;25.50;63.00;;;;;;5053954;28;20222;-86
2023/08/25 04:23:24;;;;;;;2.05;1.85;;;25.50;63.00;;;;;;5037725;28;20206;-86
2023/08/25 04:25:54;;;;;;;3.95;2.10;;;25.50;63.00;;;;;;5056025;28;20199;-85
2023/08/25 04:28:21;;;;;;;4.22;2.10;;;25.50;63.10;;;;;;5050715;28;20242;-86
2023/08/25 04:30:48;;;;;;;4.55;1.90;;;25.40;63.00;;;;;;5067094;28;20253;-86
2023/08/25 04:33:25;;;;;;;3.22;2.20;;;25.40;62.90;;;;;;5052468;28;20225;-86
2023/08/25 04:35:52;;;;;;;3.88;2.03;;;25.40;63.00;;;;;;5054954;28;20199;-86
2023/08/25 04:38:19;;;;;;;4.60;2.00;;;25.40;62.90;;;;;;5072943;28;20176;-86
2023/08/25 04:40:49;;;;;;;4.03;2.33;;;25.40;63.00;;;;;;5041561;28;20219;-86
2023/08/25 04:43:17;;;;;;;3.00;2.15;;;25.40;63.00;;;;;;5041719;28;20230;-86
2023/08/25 04:45:45;;;;;;;5.00;2.05;;;25.40;63.10;;;;;;5040066;28;20198;-86
2023/08/25 04:48:12;;;;;;;3.40;1.95;;;25.40;63.10;;;;;;5041069;28;20221;-86
2023/08/25 04:50:41;;;;;;;4.03;2.05;;;25.30;63.00;;;;;;5055943;28;20223;-86
2023/08/25 04:53:08;;;;;;;2.10;1.92;;;25.30;63.00;;;;;;5039450;28;20222;-86
2023/08/25 04:55:35;;;;;;;2.22;1.80;;;25.30;63.00;;;;;;5055033;28;20202;-86
2023/08/25 04:58:04;;;;;;;4.28;2.22;;;25.30;63.20;;;;;;5038360;28;20725;-86
2023/08/25 05:00:31;;;;;;;2.30;2.10;;;25.30;63.10;;;;;;5040214;28;20219;-84
2023/08/25 05:02:58;;;;;;;3.28;2.20;;;25.30;63.20;;;;;;5038707;28;20230;-84
2023/08/25 05:05:25;;;;;;;4.38;2.15;;;25.30;63.10;;;;;;5039081;28;20192;-85
2023/08/25 05:07:56;;;;;;;6.13;2.17;;;25.30;63.10;;;;;;5037720;28;20237;-85
2023/08/25 05:10:45;;;;;;;4.10;2.30;;;25.30;63.40;;;;;;5054128;28;20222;-85
2023/08/25 05:13:13;;;;;;;5.47;2.30;;;25.20;63.30;;;;;;5043506;28;20206;-84
2023/08/25 05:15:40;;;;;;;2.90;2.10;;;25.20;63.20;;;;;;5035565;28;20271;-84
2023/08/25 05:18:09;;;;;;;2.20;2.00;;;25.20;63.30;;;;;;5033888;28;20541;-84
2023/08/25 05:20:36;;;;;;;4.90;2.40;;;25.30;63.20;;;;;;5010729;28;20223;-85
2023/08/25 05:23:05;;;;;;;4.40;2.60;;;25.30;63.60;;;;;;5047731;28;20295;-85
2023/08/25 05:25:32;;;;;;;4.57;2.47;;;25.10;64.00;;;;;;5026037;28;20289;-85
2023/08/25 05:28:00;;;;;;;5.68;2.03;;;24.90;65.40;;;;;;5029209;28;20219;-85
2023/08/25 05:30:28;;;;;;;3.03;2.05;;;24.90;65.30;;;;;;5039407;28;20211;-84
2023/08/25 05:32:57;;;;;;;4.20;2.25;;;25.00;64.60;;;;;;5040126;28;20201;-84
2023/08/25 05:35:52;;;;;;;3.03;2.50;;;25.00;64.80;;;;;;5039341;28;20194;-84
2023/08/25 05:38:21;;;;;;;2.45;2.10;;;25.10;64.40;;;;;;5038052;28;20270;-84
2023/08/25 05:40:48;;;;;;;5.82;2.50;;;25.20;64.20;;;;;;5055166;28;20668;-84
2023/08/25 05:43:16;;;;;;;3.42;2.35;;;25.30;64.10;;;;;;5038829;28;20539;-84
2023/08/25 05:45:43;;;;;;;3.25;2.15;;;25.30;63.70;;;;;;5039501;28;20653;-84
2023/08/25 05:48:13;;;;;;;4.38;2.30;;;25.50;63.60;;;;;;5038945;28;20211;-84
2023/08/25 05:50:40;;;;;;;3.38;2.30;;;25.60;63.10;;;;;;5055992;28;20321;-85
2023/08/25 05:53:07;;;;;;;5.03;2.30;;;25.70;62.80;;;;;;5039305;28;20195;-84
2023/08/25 05:55:36;;;;;;;4.07;2.10;;;25.90;62.60;;;;;;5039108;28;20198;-84
2023/08/25 05:58:03;;;;;;;2.45;2.25;;;25.90;62.30;;;;;;5039345;28;20199;-84
2023/08/25 06:00:30;;;;;;;3.10;2.13;;;25.90;62.20;;;;;;5039773;28;20210;-85
2023/08/25 06:02:58;;;;;;;4.30;2.42;;;26.00;62.20;;;;;;5022757;28;20199;-84
2023/08/25 06:05:25;;;;;;;2.58;2.30;;;25.90;62.30;;;;;;5040489;28;20535;-84
2023/08/25 06:07:52;;;;;;;2.95;2.20;;;26.00;62.40;;;;;;5040890;28;20219;-84
2023/08/25 06:10:18;;;;;;;3.72;2.28;;;25.90;62.40;;;;;;5039525;28;20203;-84
2023/08/25 06:12:49;;;;;;;3.00;2.15;;;25.90;62.60;;;;;;5039264;28;20194;-84
2023/08/25 06:15:16;;;;;;;4.63;2.35;;;25.90;62.60;;;;;;5055820;28;20202;-84
2023/08/25 06:17:43;;;;;;;3.63;2.20;;;25.90;62.90;;;;;;5040327;28;20198;-84
2023/08/25 06:20:11;;;;;;;2.83;2.10;;;25.90;62.90;;;;;;5055935;28;20202;-84
2023/08/25 06:22:39;;;;;;;4.97;2.65;;;25.90;62.90;;;;;;5040143;28;20198;-84
2023/08/25 06:25:08;;;;;;;4.60;2.20;;;25.90;63.10;;;;;;5023275;28;20231;-84
2023/08/25 06:27:35;;;;;;;2.45;2.05;;;25.90;63.20;;;;;;5042082;28;20202;-84
2023/08/25 06:30:04;;;;;;;2.30;2.10;;;25.90;63.00;;;;;;5039227;28;20256;-86
2023/08/25 06:32:32;;;;;;;3.42;2.42;;;25.90;63.20;;;;;;5038986;28;20199;-85
2023/08/25 06:34:59;;;;;;;4.95;2.10;;;26.00;63.10;;;;;;5055804;28;20195;-84
2023/08/25 06:37:26;;;;;;;2.42;2.22;;;25.90;62.90;;;;;;5039156;28;20191;-84
2023/08/25 06:39:53;;;;;;;3.17;2.30;;;25.90;63.00;;;;;;5039022;28;20712;-84
2023/08/25 06:42:20;;;;;;;3.28;2.35;;;25.90;62.90;;;;;;5038793;28;20301;-84
2023/08/25 06:44:48;;;;;;;3.92;2.80;;;25.90;62.90;;;;;;5055628;28;20191;-84
2023/08/25 06:47:17;;;;;;;3.80;2.50;;;25.90;62.90;;;;;;5039013;28;20630;-84
2023/08/25 06:49:43;;;;;;;3.60;2.63;;;25.90;63.00;;;;;;5038694;28;20222;-85
2023/08/25 06:52:11;;;;;;;3.13;2.55;;;25.90;63.00;;;;;;5038456;28;20326;-84
2023/08/25 06:54:37;;;;;;;3.97;2.72;;;25.90;63.30;;;;;;5055550;28;20248;-84
2023/08/25 06:57:05;;;;;;;4.72;2.80;;;25.80;63.40;;;;;;5039128;28;20653;-84
2023/08/25 06:59:31;;;;;;;5.70;3.28;;;25.80;63.90;;;;;;5039128;28;20194;-84
2023/08/25 07:02:07;;;;;;;3.72;3.00;;;25.80;63.90;;;;;;5056243;28;20683;-85
2023/08/25 07:04:37;;;;;;;4.82;2.90;;;25.80;64.00;;;;;;5044452;28;20211;-85
2023/08/25 07:07:04;;;;;;;4.50;3.00;;;25.80;63.80;;;;;;5059043;28;20213;-85
2023/08/25 07:09:31;;;;;;;4.45;2.80;;;25.80;63.50;;;;;;5050624;28;20211;-85
2023/08/25 07:11:59;;;;;;;4.55;2.97;;;25.80;63.50;;;;;;5045725;28;20349;-85
2023/08/25 07:14:27;;;;;;;4.43;3.08;;;25.70;64.40;;;;;;5062400;28;20293;-85
2023/08/25 07:16:54;;;;;;;5.00;2.85;;;25.60;64.90;;;;;;5057557;28;20174;-86
2023/08/25 07:19:22;;;;;;;4.63;3.20;;;25.50;64.80;;;;;;5077418;28;20432;-85
2023/08/25 07:21:50;;;;;;;5.82;3.30;;;25.50;65.60;;;;;;5053644;28;20211;-85
2023/08/25 07:24:18;;;;;;;3.72;3.38;;;25.40;67.00;;;;;;5053571;28;20199;-85
2023/08/25 07:26:44;;;;;;;6.15;3.47;;;25.30;67.70;;;;;;5020351;28;20206;-85
2023/08/25 07:29:11;;;;;;;4.40;3.30;;;25.20;67.60;;;;;;5036682;28;20206;-86
2023/08/25 07:31:39;;;;;;;3.70;3.33;;;25.30;67.60;;;;;;5036919;28;20219;-86
2023/08/25 07:34:06;;;;;;;5.03;3.55;;;25.30;68.00;;;;;;5053675;28;20198;-86
2023/08/25 07:36:33;;;;;;;5.68;3.38;;;25.20;68.30;;;;;;5036785;28;20190;-86
2023/08/25 07:39:02;;;;;;;5.90;3.08;;;25.10;69.00;;;;;;5037475;28;20191;-86
2023/08/25 07:41:29;;;;;;;3.35;2.67;;;25.10;69.00;;;;;;5053733;28;20219;-86
2023/08/25 07:43:56;;;;;;;5.07;3.20;;;25.00;68.90;;;;;;5036610;28;20199;-86
2023/08/25 07:46:23;;;;;;;5.10;3.17;;;24.90;69.90;;;;;;5053324;28;20202;-85
2023/08/25 07:48:50;;;;;;;5.00;3.33;;;24.80;70.30;;;;;;5035748;28;20276;-85
2023/08/25 07:51:17;;;;;;;3.63;3.20;;;24.80;70.10;;;;;;5037281;28;20288;-86
2023/08/25 07:53:44;;;;;;;2.88;2.58;;;24.70;69.90;;;;;;5054385;28;20630;-85
2023/08/25 07:56:13;;;;;;;3.50;3.10;;;24.60;70.10;;;;;;5036898;28;20215;-86
2023/08/25 07:58:40;;;;;;;5.32;3.05;;;24.50;70.80;;;;;;5053163;28;20229;-86
2023/08/25 08:01:09;;;;;;;3.17;2.88;;;24.50;71.70;;;;;;5052836;28;20607;-85
2023/08/25 08:03:36;;;;;;;4.00;2.95;;;24.50;71.60;;;;;;5054212;28;20191;-86
2023/08/25 08:06:03;;;;;;;6.47;3.20;;;24.50;72.00;;;;;;5037068;28;20199;-86
2023/08/25 08:08:31;;;;;;;5.88;3.00;;;24.40;72.40;;;;;;5036196;28;20306;-86
2023/08/25 08:10:58;;;;;;;4.47;3.13;;;24.30;72.60;;;;;;5036362;28;20586;-85
2023/08/25 08:13:27;;;;;;;3.95;2.83;;;24.30;73.10;;;;;;5037581;28;20201;-85
2023/08/25 08:15:54;;;;;;;5.50;3.03;;;24.20;73.30;;;;;;5039055;28;20199;-84
2023/08/25 08:18:21;;;;;;;4.97;2.95;;;24.10;73.30;;;;;;5037411;28;20198;-85
2023/08/25 08:20:48;;;;;;;3.28;2.80;;;24.10;73.40;;;;;;5036109;28;20219;-85
2023/08/25 08:23:16;;;;;;;7.63;2.95;;;24.10;73.90;;;;;;5036791;28;20203;-86
2023/08/25 08:25:42;;;;;;;4.03;3.15;;;24.20;74.00;;;;;;5052789;28;20203;-85
2023/08/25 08:28:10;;;;;;;3.05;2.75;;;24.10;73.50;;;;;;5037168;28;20291;-85
2023/08/25 08:30:38;;;;;;;4.55;3.03;;;24.20;73.80;;;;;;5035900;28;20685;-84
2023/08/25 08:33:06;;;;;;;4.65;2.78;;;24.10;73.60;;;;;;5036086;28;20187;-85
2023/08/25 08:35:33;;;;;;;4.25;2.60;;;24.10;73.00;;;;;;5019671;28;20609;-84
2023/08/25 08:38:00;;;;;;;4.25;3.15;;;24.20;72.30;;;;;;5035795;28;20234;-85
2023/08/25 08:40:31;;;;;;;4.38;3.00;;;24.20;72.30;;;;;;5035969;28;20219;-82
2023/08/25 08:43:01;;;;;;;5.13;2.90;;;24.20;72.50;;;;;;5038347;28;20191;-83
2023/08/25 08:45:31;;;;;;;7.15;3.40;;;24.20;72.40;;;;;;5037437;28;20263;-83
2023/08/25 08:48:01;;;;;;;3.88;3.20;;;24.30;72.30;;;;;;5036975;28;20203;-81
2023/08/25 08:50:28;;;;;;;7.50;3.53;;;24.30;72.80;;;;;;5037186;28;20238;-83
2023/08/25 08:52:55;;;;;;;5.68;3.50;;;24.30;72.80;;;;;;5037180;28;20565;-83
2023/08/25 08:55:23;;;;;;;6.35;3.70;;;24.30;72.80;;;;;;5035793;28;20265;-83
2023/08/25 08:57:50;;;;;;;5.68;4.05;;;24.30;73.00;;;;;;5035685;28;20631;-81
2023/08/25 09:00:18;;;;;;;7.63;3.53;;;24.30;73.10;;;;;;5038828;28;20278;-82
2023/08/25 09:02:45;;;;;;;4.65;3.40;;;24.30;73.00;;;;;;5039791;28;20196;-83
2023/08/25 09:05:14;;;;;;;6.13;3.53;;;24.30;72.80;;;;;;5056787;28;20206;-82
2023/08/25 09:07:42;;;;;;;6.53;3.63;;;24.30;73.20;;;;;;5039937;28;20195;-83
2023/08/25 09:10:10;;;;;;;5.85;3.33;;;24.30;73.30;;;;;;5040570;28;20261;-83
2023/08/25 09:12:39;;;;;;;5.57;3.40;;;24.30;73.50;;;;;;5056792;28;20264;-83
2023/08/25 09:15:08;;;;;;;4.38;3.20;;;24.30;73.50;;;;;;5056590;28;20711;-83
2023/08/25 09:17:37;;;;;;;4.70;3.08;;;24.30;73.70;;;;;;5040632;28;20192;-83
2023/08/25 09:20:05;;;;;;;4.15;3.05;;;24.30;74.00;;;;;;5040032;28;20203;-83
2023/08/25 09:22:34;;;;;;;5.13;2.92;;;24.30;73.90;;;;;;5041184;28;20203;-83
2023/08/25 09:25:02;;;;;;;5.75;3.30;;;24.30;73.70;;;;;;5040723;28;20199;-83
2023/08/25 09:27:29;;;;;;;5.38;2.70;;;24.30;74.00;;;;;;5056970;28;20199;-83
2023/08/25 09:30:03;;;;;;;5.53;3.20;;;24.30;74.30;;;;;;5056900;28;20211;-83
2023/08/25 09:32:31;;;;;;;4.88;3.20;;;24.30;74.40;;;;;;5041136;28;20198;-83
2023/08/25 09:34:59;;;;;;;4.90;3.00;;;24.30;74.20;;;;;;5040617;28;20206;-83
2023/08/25 09:37:41;;;;;;;5.22;3.20;;;24.40;74.80;;;;;;5039726;28;20672;-85
2023/08/25 09:40:11;;;;;;;3.65;2.92;;;24.50;75.30;;;;;;5056334;28;20218;-83
2023/08/25 09:42:40;;;;;;;4.95;2.95;;;24.40;73.80;;;;;;5040092;28;20203;-84
2023/08/25 09:45:09;;;;;;;3.53;2.90;;;24.50;73.60;;;;;;5023445;28;20199;-83
2023/08/25 09:47:36;;;;;;;5.40;3.50;;;24.50;74.90;;;;;;5024945;28;20199;-83
2023/08/25 09:50:04;;;;;;;5.13;3.72;;;24.50;75.80;;;;;;5039394;28;20257;-83
2023/08/25 09:52:32;;;;;;;4.10;3.03;;;24.60;77.00;;;;;;5040995;28;20195;-83
2023/08/25 09:55:01;;;;;;;5.38;3.40;;;24.70;76.40;;;;;;5039237;28;20206;-83
2023/08/25 09:57:28;;;;;;;3.70;2.97;;;24.70;76.30;;;;;;5038854;28;20733;-84
2023/08/25 09:59:55;;;;;;;6.07;3.38;;;24.80;75.60;;;;;;5038768;28;20195;-84
2023/08/25 10:02:22;;;;;;;3.72;3.28;;;24.80;75.10;;;;;;5038639;28;20654;-83
2023/08/25 10:04:49;;;;;;;4.40;3.67;;;24.90;75.10;;;;;;5022078;28;20291;-83
2023/08/25 10:07:16;;;;;;;5.90;3.20;;;25.00;76.80;;;;;;5055315;28;20286;-83
2023/08/25 10:09:44;;;;;;;5.65;3.30;;;25.00;77.60;;;;;;5022546;28;20219;-84
2023/08/25 10:12:13;;;;;;;5.20;3.10;;;25.10;75.60;;;;;;5021235;28;20276;-83
2023/08/25 10:14:40;;;;;;;3.90;3.00;;;25.20;74.40;;;;;;5038704;28;20199;-83
2023/08/25 10:17:07;;;;;;;3.63;3.20;;;25.30;74.00;;;;;;5039768;28;20199;-82
2023/08/25 10:19:34;;;;;;;3.60;3.10;;;25.20;73.00;;;;;;5040282;28;20198;-84
2023/08/25 10:22:01;;;;;;;3.35;3.05;;;25.10;73.10;;;;;;5039182;28;20253;-83
2023/08/25 10:24:29;;;;;;;3.20;2.90;;;25.20;74.10;;;;;;5022969;28;20209;-82
2023/08/25 10:26:56;;;;;;;3.35;3.05;;;25.20;73.70;;;;;;5039047;28;20191;-83
2023/08/25 10:29:25;;;;;;;4.65;3.20;;;25.10;73.50;;;;;;5038698;28;20211;-82
2023/08/25 10:31:52;;;;;;;3.85;3.05;;;25.10;73.80;;;;;;5039440;28;20224;-84
2023/08/25 10:34:37;;;;;;;5.22;2.88;;;25.10;74.40;;;;;;5039532;28;20252;-84
2023/08/25 10:37:06;;;;;;;5.03;3.20;;;25.00;74.40;;;;;;5039430;28;20187;-84
2023/08/25 10:39:49;;;;;;;3.67;2.85;;;25.00;74.10;;;;;;5038761;28;20187;-84
2023/08/25 10:42:20;;;;;;;3.30;3.00;;;25.00;73.90;;;;;;5039579;28;20218;-84
2023/08/25 10:44:54;;;;;;;4.07;2.65;;;25.00;73.70;;;;;;5039207;28;20195;-84
2023/08/25 10:47:22;;;;;;;5.20;3.20;;;25.00;73.10;;;;;;5039546;28;20281;-84
2023/08/25 10:49:52;;;;;;;3.83;3.08;;;25.00;72.20;;;;;;5038916;28;20223;-84
2023/08/25 10:52:20;;;;;;;6.80;2.83;;;25.00;73.90;;;;;;5039390;28;20325;-84
2023/08/25 10:54:48;;;;;;;4.07;2.85;;;25.10;73.30;;;;;;5042026;28;20282;-85
2023/08/25 10:57:22;;;;;;;4.25;2.90;;;25.10;71.90;;;;;;5039311;28;20202;-84
2023/08/25 10:59:57;;;;;;;4.13;3.10;;;25.10;70.90;;;;;;5024516;28;20201;-83
2023/08/25 11:02:36;;;;;;;4.82;2.85;;;25.10;71.40;;;;;;5056835;28;20198;-85
2023/08/25 11:05:40;;;;;;;4.40;2.88;;;25.10;71.40;;;;;;5061869;28;20197;-86
2023/08/25 11:08:24;;;;;;;3.00;2.70;;;25.20;71.30;;;;;;5061296;28;20332;-85
2023/08/25 11:11:09;;;;;;;3.08;2.78;;;25.30;70.30;;;;;;5038305;28;20256;-84
2023/08/25 11:13:37;;;;;;;3.30;2.85;;;25.30;70.00;;;;;;5038289;28;20295;-85
2023/08/25 11:16:08;;;;;;;3.13;2.45;;;25.40;70.10;;;;;;5055336;28;20205;-85
2023/08/25 11:18:35;;;;;;;2.80;2.60;;;25.50;67.80;;;;;;5040371;28;20252;-85
2023/08/25 11:21:02;;;;;;;3.88;3.30;;;25.60;68.50;;;;;;5075781;28;20219;-85
2023/08/25 11:23:36;;;;;;;2.97;2.70;;;25.60;68.20;;;;;;5060157;28;20191;-85
2023/08/25 11:26:02;;;;;;;3.30;2.88;;;25.60;68.70;;;;;;5060608;28;20197;-84
2023/08/25 11:28:30;;;;;;;3.17;2.88;;;25.60;68.20;;;;;;5047221;28;20256;-86
2023/08/25 11:30:57;;;;;;;3.50;2.78;;;25.60;67.40;;;;;;5059924;28;20222;-85
2023/08/25 11:33:26;;;;;;;3.47;2.95;;;25.60;66.50;;;;;;5042760;28;20241;-85
2023/08/25 11:35:53;;;;;;;3.40;3.10;;;25.60;66.80;;;;;;5041248;28;20203;-85
2023/08/25 11:38:20;;;;;;;3.03;2.72;;;25.60;67.70;;;;;;5037320;28;20203;-85
2023/08/25 11:40:47;;;;;;;3.47;2.70;;;25.70;67.20;;;;;;5037219;28;20690;-85
2023/08/25 11:43:15;;;;;;;3.50;3.20;;;25.70;66.90;;;;;;5037143;28;20205;-85
2023/08/25 11:45:41;;;;;;;3.20;2.90;;;25.70;68.40;;;;;;5037394;28;20198;-84
2023/08/25 11:48:09;;;;;;;3.72;3.20;;;25.70;66.50;;;;;;5037391;28;20201;-85
2023/08/25 11:50:37;;;;;;;3.53;2.92;;;25.70;67.10;;;;;;5036932;28;20223;-85
2023/08/25 11:53:07;;;;;;;3.67;3.03;;;25.70;67.90;;;;;;5020995;28;20294;-85
2023/08/25 11:55:34;;;;;;;3.85;3.17;;;25.70;68.20;;;;;;5053907;28;20244;-85
2023/08/25 11:58:06;;;;;;;6.38;3.10;;;25.70;67.90;;;;;;5037127;28;20194;-85
2023/08/25 12:00:36;;;;;;;3.90;3.03;;;25.70;67.90;;;;;;5037529;28;20225;-85
2023/08/25 12:03:12;;;;;;;3.58;3.13;;;25.80;68.20;;;;;;5039344;28;20233;-85
2023/08/25 12:05:40;;;;;;;3.58;3.28;;;25.80;67.90;;;;;;5038027;28;20289;-85
2023/08/25 12:08:07;;;;;;;3.25;2.92;;;25.80;68.00;;;;;;5037518;28;20654;-84
2023/08/25 12:10:36;;;;;;;3.95;3.05;;;25.80;68.80;;;;;;5036771;28;20222;-84
2023/08/25 12:13:04;;;;;;;5.72;3.33;;;25.90;68.00;;;;;;5054034;28;20195;-85
2023/08/25 12:15:40;;;;;;;3.72;3.38;;;25.90;69.00;;;;;;5053776;28;20534;-85
2023/08/25 12:18:08;;;;;;;4.78;3.65;;;25.90;69.00;;;;;;5037371;28;20186;-85
2023/08/25 12:20:35;;;;;;;4.05;3.67;;;25.90;67.80;;;;;;5056282;28;20215;-85
2023/08/25 12:23:04;;;;;;;4.70;3.67;;;25.90;68.30;;;;;;5039773;28;20194;-85
2023/08/25 12:25:31;;;;;;;4.45;3.42;;;25.90;68.40;;;;;;5039048;28;20203;-85
2023/08/25 12:27:58;;;;;;;3.60;3.30;;;25.90;68.50;;;;;;5037638;28;20191;-85
2023/08/25 12:30:28;;;;;;;3.30;3.00;;;25.90;67.80;;;;;;5054779;28;20229;-85
2023/08/25 12:32:55;;;;;;;3.50;3.20;;;25.90;67.80;;;;;;5037188;28;20297;-85
2023/08/25 12:35:23;;;;;;;3.40;3.10;;;25.90;67.50;;;;;;5042117;28;20198;-84
2023/08/25 12:37:49;;;;;;;3.55;3.17;;;25.90;67.40;;;;;;5041325;28;20330;-84
2023/08/25 12:40:20;;;;;;;3.65;3.35;;;25.90;67.10;;;;;;5036607;28;20672;-84
2023/08/25 12:42:50;;;;;;;3.28;2.90;;;25.90;67.00;;;;;;5038875;28;20614;-85
2023/08/25 12:45:17;;;;;;;4.95;3.00;;;25.90;67.00;;;;;;5020761;28;20242;-85
2023/08/25 12:47:44;;;;;;;4.63;3.42;;;25.90;66.50;;;;;;5041122;28;20195;-84
2023/08/25 12:50:12;;;;;;;5.13;3.40;;;25.90;65.40;;;;;;5024220;28;20218;-84
2023/08/25 12:52:39;;;;;;;4.20;3.83;;;26.00;64.90;;;;;;5041098;28;20198;-84
2023/08/25 12:55:10;;;;;;;3.75;3.33;;;26.00;65.10;;;;;;5040727;28;20202;-85